Time;durP1;ratioP1;P1;durP2;ratioP2;P2;SDS_P1;SDS_P2;PMS_P1;PMS_P2;Temp;Humidity;BMP_temperature;BMP_pressure;BME280_temperature;BME280_humidity;BME280_pressure;Samples;Min_cycle;Max_cycle;Signal;HPM_P1;HPM_P2
2023/03/14 00:00:25;;;;;;;0.90;0.90;;;;;;;4.55;68.93;99906.50;5020215;28;20206;-58
2023/03/14 00:02:53;;;;;;;0.83;0.83;;;;;;;4.57;68.80;99899.72;5026493;28;20198;-58
2023/03/14 00:05:20;;;;;;;0.67;0.67;;;;;;;4.59;68.31;99914.94;5023516;28;20263;-58
2023/03/14 00:07:48;;;;;;;0.60;0.60;;;;;;;4.60;67.81;99909.03;5023321;28;20259;-58
2023/03/14 00:10:16;;;;;;;0.77;0.77;;;;;;;4.59;67.92;99902.25;5021502;28;20197;-58
2023/03/14 00:12:43;;;;;;;0.80;0.80;;;;;;;4.58;67.73;99903.09;5020788;28;20220;-58
2023/03/14 00:15:11;;;;;;;0.63;0.63;;;;;;;4.57;67.79;99898.88;5023306;28;20197;-58
2023/03/14 00:17:38;;;;;;;0.93;0.93;;;;;;;4.52;67.75;99892.94;5020865;28;20586;-58
2023/03/14 00:20:09;;;;;;;0.60;0.60;;;;;;;4.50;67.70;99894.63;5026953;28;20197;-58
2023/03/14 00:22:36;;;;;;;0.63;0.63;;;;;;;4.48;67.62;99889.53;5020635;28;20233;-58
2023/03/14 00:25:06;;;;;;;0.70;0.70;;;;;;;4.47;68.05;99887.00;5020167;28;20252;-58
2023/03/14 00:27:34;;;;;;;0.70;0.70;;;;;;;4.40;67.80;99886.13;5028127;28;20201;-58
2023/03/14 00:30:00;;;;;;;0.80;0.80;;;;;;;4.36;68.37;99883.59;5027591;28;20288;-58
2023/03/14 00:32:27;;;;;;;0.60;0.60;;;;;;;4.31;69.29;99881.03;5021957;28;20725;-57
2023/03/14 00:34:54;;;;;;;0.70;0.70;;;;;;;4.24;69.37;99870.03;5026039;28;20201;-57
2023/03/14 00:37:21;;;;;;;0.63;0.63;;;;;;;4.22;69.66;99871.72;5018967;28;20208;-58
2023/03/14 00:39:48;;;;;;;0.80;0.80;;;;;;;4.14;69.74;99858.16;5023479;28;20212;-57
2023/03/14 00:42:16;;;;;;;0.67;0.67;;;;;;;4.06;71.24;99867.44;5026596;28;20198;-57
2023/03/14 00:44:43;;;;;;;0.80;0.80;;;;;;;3.99;71.13;99863.19;5022615;28;20715;-58
2023/03/14 00:47:10;;;;;;;0.60;0.60;;;;;;;3.94;71.33;99864.84;5027982;28;20205;-58
2023/03/14 00:49:37;;;;;;;0.70;0.70;;;;;;;3.88;71.21;99859.75;5028064;28;20249;-58
2023/03/14 00:52:04;;;;;;;0.70;0.70;;;;;;;3.79;70.95;99857.19;5026787;28;20685;-57
2023/03/14 00:54:31;;;;;;;0.90;0.90;;;;;;;3.76;71.20;99849.56;5026809;28;20210;-58
2023/03/14 00:56:58;;;;;;;0.70;0.70;;;;;;;3.72;71.38;99845.31;5024323;28;20201;-57
2023/03/14 00:59:26;;;;;;;0.70;0.70;;;;;;;3.69;71.70;99837.69;5026544;28;20266;-58
2023/03/14 01:01:53;;;;;;;0.97;0.97;;;;;;;3.67;71.76;99839.38;5022268;28;20201;-57
2023/03/14 01:04:20;;;;;;;0.80;0.80;;;;;;;3.69;71.97;99838.53;5022657;28;20259;-58
2023/03/14 01:06:46;;;;;;;0.70;0.70;;;;;;;3.67;72.15;99826.72;5027256;28;20201;-57
2023/03/14 01:09:13;;;;;;;0.80;0.80;;;;;;;3.68;71.82;99825.88;5026677;28;20574;-58
2023/03/14 01:11:40;;;;;;;0.70;0.70;;;;;;;3.42;71.76;99771.69;5026701;28;20205;-57
2023/03/14 01:14:07;;;;;;;0.60;0.60;;;;;;;3.72;72.12;99816.59;5025611;28;20260;-57
2023/03/14 01:16:36;;;;;;;0.83;0.83;;;;;;;3.73;72.28;99819.13;5025212;28;20198;-58
2023/03/14 01:19:03;;;;;;;0.60;0.60;;;;;;;3.75;72.28;99817.44;5027639;28;20616;-58
2023/03/14 01:21:31;;;;;;;0.63;0.63;;;;;;;3.74;72.33;99814.91;5025448;28;20198;-58
2023/03/14 01:24:00;;;;;;;0.90;0.90;;;;;;;3.77;71.92;99815.75;5026016;28;20632;-58
2023/03/14 01:26:28;;;;;;;0.80;0.80;;;;;;;3.77;72.02;99814.91;5025421;28;20261;-58
2023/03/14 01:28:56;;;;;;;0.90;0.90;;;;;;;3.77;72.05;99813.22;5027124;28;20213;-58
2023/03/14 01:31:24;;;;;;;0.70;0.70;;;;;;;3.77;72.34;99819.97;5032817;28;20232;-57
2023/03/14 01:33:53;;;;;;;0.70;0.70;;;;;;;3.77;72.34;99814.91;5034334;28;20205;-58
2023/03/14 01:36:20;;;;;;;0.70;0.70;;;;;;;3.77;72.82;99813.22;5031272;28;20209;-58
2023/03/14 01:38:47;;;;;;;0.70;0.70;;;;;;;3.67;72.64;99803.88;5040826;28;20193;-57
2023/03/14 01:41:17;;;;;;;2.33;1.77;;;;;;;3.68;72.65;99808.94;5045699;28;20197;-57
2023/03/14 01:43:44;;;;;;;0.80;0.80;;;;;;;3.63;72.18;99809.78;5034556;28;20661;-58
2023/03/14 01:46:31;;;;;;;1.63;1.63;;;;;;;3.58;71.93;99808.94;5039059;28;20209;-57
2023/03/14 01:49:06;;;;;;;0.80;0.80;;;;;;;3.47;71.99;99806.34;5038620;28;20213;-58
2023/03/14 01:51:39;;;;;;;0.83;0.83;;;;;;;3.41;72.51;99805.47;5041436;28;20204;-58
2023/03/14 01:54:12;;;;;;;0.83;0.83;;;;;;;3.33;73.25;99802.88;5040879;28;20268;-57
2023/03/14 01:56:42;;;;;;;0.90;0.90;;;;;;;3.16;74.34;99795.22;5039475;28;20254;-57
2023/03/14 01:59:10;;;;;;;0.83;0.83;;;;;;;3.09;74.74;99792.63;5040095;28;20664;-58
2023/03/14 02:01:39;;;;;;;0.80;0.80;;;;;;;3.11;74.88;99791.78;5032384;28;20197;-57
2023/03/14 02:04:09;;;;;;;0.70;0.70;;;;;;;3.13;74.57;99795.16;5043483;28;20204;-58
2023/03/14 02:06:45;;;;;;;0.97;0.97;;;;;;;3.13;74.55;99790.09;5035174;28;20206;-58
2023/03/14 02:09:12;;;;;;;0.60;0.60;;;;;;;3.15;74.48;99790.97;5031178;28;20227;-57
2023/03/14 02:11:39;;;;;;;0.70;0.70;;;;;;;3.16;74.43;99790.16;5036689;28;20664;-58
2023/03/14 02:14:08;;;;;;;0.60;0.60;;;;;;;3.10;74.18;99784.19;5038341;28;20197;-58
2023/03/14 02:16:36;;;;;;;0.83;0.83;;;;;;;3.17;74.21;99791.81;5036268;28;20205;-57
2023/03/14 02:19:05;;;;;;;0.70;0.70;;;;;;;3.16;73.99;99790.16;5040000;28;20197;-57
2023/03/14 02:21:46;;;;;;;0.70;0.70;;;;;;;3.14;74.03;99781.66;5041483;28;20717;-58
2023/03/14 02:24:18;;;;;;;0.80;0.80;;;;;;;3.15;74.07;99790.13;5039696;28;20231;-57
2023/03/14 02:27:01;;;;;;;0.70;0.70;;;;;;;3.13;73.97;99787.56;5040851;28;20205;-58
2023/03/14 02:29:31;;;;;;;0.60;0.60;;;;;;;3.12;74.35;99783.34;5038944;28;20220;-58
2023/03/14 02:31:58;;;;;;;0.80;0.80;;;;;;;3.11;74.17;99780.81;5038928;28;20221;-57
2023/03/14 02:34:26;;;;;;;0.70;0.70;;;;;;;3.09;74.37;99792.63;5038077;28;20197;-57
2023/03/14 02:36:53;;;;;;;2.90;2.80;;;;;;;3.04;74.63;99779.91;5040417;28;20284;-58
2023/03/14 02:39:28;;;;;;;0.60;0.60;;;;;;;3.04;74.75;99779.91;5037425;28;20196;-58
2023/03/14 02:41:55;;;;;;;0.70;0.70;;;;;;;3.03;74.97;99778.25;5042222;28;20644;-57
2023/03/14 02:44:22;;;;;;;0.60;0.60;;;;;;;3.02;74.96;99789.19;5034047;28;20197;-58
2023/03/14 02:46:50;;;;;;;0.70;0.70;;;;;;;2.54;74.95;99715.47;5029794;28;20210;-58
2023/03/14 02:49:17;;;;;;;0.60;0.60;;;;;;;2.99;74.96;99791.72;5037301;28;20208;-58
2023/03/14 02:51:46;;;;;;;0.80;0.80;;;;;;;2.98;75.10;99797.59;5035416;28;20259;-58
2023/03/14 02:54:13;;;;;;;0.80;0.80;;;;;;;2.96;74.99;99791.69;5033586;28;20204;-58
2023/03/14 02:56:40;;;;;;;0.60;0.60;;;;;;;2.88;75.25;99783.19;5036744;28;20692;-57
2023/03/14 02:59:08;;;;;;;0.80;0.80;;;;;;;2.92;75.30;99800.09;5041368;28;20196;-57
2023/03/14 03:01:35;;;;;;;0.70;0.70;;;;;;;2.90;75.40;99806.00;5035681;28;20578;-58
2023/03/14 03:04:04;;;;;;;0.63;0.63;;;;;;;2.85;75.66;99805.97;5038837;28;20644;-57
2023/03/14 03:06:30;;;;;;;0.80;0.80;;;;;;;2.72;75.68;99791.50;5039544;28;20206;-57
2023/03/14 03:08:57;;;;;;;0.80;0.80;;;;;;;2.76;76.03;99808.44;5037736;28;20198;-57
2023/03/14 03:11:24;;;;;;;0.83;0.83;;;;;;;2.63;76.96;99802.44;5038558;28;20206;-57
2023/03/14 03:13:51;;;;;;;0.70;0.70;;;;;;;2.53;77.21;99793.06;5037358;28;20593;-57
2023/03/14 03:16:18;;;;;;;0.83;0.83;;;;;;;2.56;77.13;99802.34;5035704;28;20196;-58
2023/03/14 03:18:44;;;;;;;0.80;0.80;;;;;;;2.54;77.55;99797.28;5037120;28;20650;-57
2023/03/14 03:21:12;;;;;;;0.60;0.60;;;;;;;2.51;77.51;99801.47;5039146;28;20209;-58
2023/03/14 03:23:39;;;;;;;0.70;0.70;;;;;;;2.38;77.63;99787.03;5035418;28;20205;-57
2023/03/14 03:26:07;;;;;;;0.60;0.60;;;;;;;2.40;77.82;99792.94;5038466;28;20197;-57
2023/03/14 03:28:33;;;;;;;0.70;0.70;;;;;;;2.37;78.30;99788.69;5033115;28;20251;-57
2023/03/14 03:31:06;;;;;;;0.77;0.77;;;;;;;2.39;78.06;99786.19;5033339;28;20233;-57
2023/03/14 03:33:33;;;;;;;0.70;0.70;;;;;;;2.41;77.97;99780.31;5024366;28;20198;-57
2023/03/14 03:36:00;;;;;;;0.80;0.80;;;;;;;2.33;77.86;99776.84;5028804;28;20202;-58
2023/03/14 03:38:28;;;;;;;0.77;0.77;;;;;;;2.32;78.19;99766.75;5023860;28;20210;-57
2023/03/14 03:40:55;;;;;;;0.90;0.90;;;;;;;2.36;78.34;99787.00;5025576;28;20268;-58
2023/03/14 03:43:22;;;;;;;0.80;0.80;;;;;;;2.36;78.60;99786.19;5025715;28;20723;-58
2023/03/14 03:45:48;;;;;;;0.70;0.70;;;;;;;2.28;78.32;99775.13;5028877;28;20276;-58
2023/03/14 03:48:15;;;;;;;0.70;0.70;;;;;;;1.95;78.22;99717.50;5026433;28;20673;-58
2023/03/14 03:50:45;;;;;;;0.80;0.80;;;;;;;2.36;78.20;99781.94;5028171;28;20225;-58
2023/03/14 03:53:12;;;;;;;0.97;0.97;;;;;;;2.32;78.12;99789.50;5024715;28;20201;-58
2023/03/14 03:55:43;;;;;;;0.80;0.80;;;;;;;2.32;78.31;99774.31;5028973;28;20665;-58
2023/03/14 03:58:09;;;;;;;0.70;0.70;;;;;;;2.36;78.16;99776.06;5026795;28;20201;-57
2023/03/14 04:00:36;;;;;;;0.70;0.70;;;;;;;2.32;78.26;99774.31;5028065;28;20197;-57
2023/03/14 04:03:03;;;;;;;0.70;0.70;;;;;;;2.32;78.08;99779.38;5029581;28;20205;-58
2023/03/14 04:05:30;;;;;;;0.80;0.80;;;;;;;2.33;78.06;99779.38;5026709;28;20202;-58
2023/03/14 04:07:57;;;;;;;0.70;0.70;;;;;;;2.34;78.00;99777.72;5028443;28;20201;-57
2023/03/14 04:10:23;;;;;;;1.00;1.00;;;;;;;2.30;78.07;99770.91;5025082;28;20397;-58
2023/03/14 04:12:52;;;;;;;0.60;0.60;;;;;;;2.25;78.49;99783.53;5025697;28;20201;-58
2023/03/14 04:15:18;;;;;;;0.77;0.77;;;;;;;2.28;78.55;99777.66;5026361;28;20225;-58
2023/03/14 04:17:45;;;;;;;0.80;0.80;;;;;;;2.30;78.45;99770.91;5027275;28;20207;-57
2023/03/14 04:20:13;;;;;;;0.70;0.70;;;;;;;2.32;78.41;99764.22;5028248;28;20247;-57
2023/03/14 04:22:40;;;;;;;0.70;0.70;;;;;;;2.31;78.43;99767.56;5027514;28;20201;-57
2023/03/14 04:25:08;;;;;;;0.80;0.80;;;;;;;2.30;78.42;99763.34;5026929;28;20205;-57
2023/03/14 04:27:35;;;;;;;0.77;0.77;;;;;;;2.25;78.35;99762.47;5025869;28;20228;-57
2023/03/14 04:30:03;;;;;;;0.70;0.70;;;;;;;2.21;78.57;99760.72;5027860;28;20302;-58
2023/03/14 04:32:30;;;;;;;0.70;0.70;;;;;;;2.18;78.89;99760.69;5035074;28;20197;-57
2023/03/14 04:34:56;;;;;;;0.77;0.77;;;;;;;2.20;79.09;99754.00;5037670;28;20209;-57
2023/03/14 04:37:23;;;;;;;0.70;0.70;;;;;;;2.21;79.00;99753.13;5034369;28;20197;-58
2023/03/14 04:39:50;;;;;;;0.80;0.80;;;;;;;1.99;79.41;99737.78;5038620;28;20204;-57
2023/03/14 04:42:17;;;;;;;0.60;0.60;;;;;;;1.96;79.44;99734.38;5026471;28;20196;-57
2023/03/14 04:44:44;;;;;;;0.80;0.80;;;;;;;1.96;79.83;99750.41;5035742;28;20734;-58
2023/03/14 04:47:12;;;;;;;0.70;0.70;;;;;;;1.93;80.06;99749.50;5032606;28;20292;-57
2023/03/14 04:49:39;;;;;;;0.60;0.60;;;;;;;1.90;80.50;99752.88;5035009;28;20285;-57
2023/03/14 04:52:05;;;;;;;0.90;0.90;;;;;;;1.90;80.79;99765.50;5037340;28;20205;-58
2023/03/14 04:54:32;;;;;;;0.60;0.60;;;;;;;1.89;81.01;99758.75;5033933;28;20267;-58
2023/03/14 04:56:59;;;;;;;0.70;0.70;;;;;;;1.13;80.99;99629.94;5044251;28;20205;-57
2023/03/14 04:59:26;;;;;;;0.70;0.70;;;;;;;1.93;81.12;99770.59;5037600;28;20282;-57
2023/03/14 05:01:53;;;;;;;0.83;0.83;;;;;;;1.93;81.35;99773.13;5040566;28;20590;-57
2023/03/14 05:04:21;;;;;;;0.80;0.80;;;;;;;1.96;81.68;99778.22;5043245;28;20192;-58
2023/03/14 05:06:48;;;;;;;0.70;0.70;;;;;;;1.99;81.85;99780.75;5033662;28;20669;-57
2023/03/14 05:09:15;;;;;;;0.83;0.83;;;;;;;1.93;81.85;99765.53;5032379;28;20691;-57
2023/03/14 05:11:42;;;;;;;0.70;0.70;;;;;;;2.04;81.86;99784.16;5047072;28;20312;-57
2023/03/14 05:14:08;;;;;;;1.00;1.00;;;;;;;2.07;81.94;99789.25;5037346;28;20206;-58
2023/03/14 05:16:35;;;;;;;0.70;0.70;;;;;;;2.17;82.11;99789.34;5036611;28;20202;-58
2023/03/14 05:19:02;;;;;;;0.70;0.70;;;;;;;2.21;81.97;99786.00;5042696;28;20274;-58
2023/03/14 05:21:30;;;;;;;0.70;0.70;;;;;;;2.26;81.79;99790.31;5032898;28;20248;-58
2023/03/14 05:23:57;;;;;;;6.30;1.43;;;;;;;2.29;81.86;99792.00;5028078;28;20689;-57
2023/03/14 05:26:24;;;;;;;0.90;0.90;;;;;;;2.30;82.21;99792.00;5029508;28;20197;-57
2023/03/14 05:28:51;;;;;;;0.80;0.80;;;;;;;2.38;81.98;99790.41;5032022;28;20206;-58
2023/03/14 05:31:17;;;;;;;0.97;0.97;;;;;;;2.25;82.35;99775.09;5040769;28;20225;-57
2023/03/14 05:33:44;;;;;;;0.60;0.60;;;;;;;2.41;82.29;99794.66;5037247;28;20198;-57
2023/03/14 05:36:11;;;;;;;0.63;0.63;;;;;;;2.47;82.46;99794.69;5038719;28;20201;-57
2023/03/14 05:38:39;;;;;;;1.73;1.73;;;;;;;2.59;82.64;99789.72;5042667;28;20209;-58
2023/03/14 05:41:06;;;;;;;0.70;0.70;;;;;;;2.71;82.70;99794.06;5045859;28;20197;-58
2023/03/14 05:43:33;;;;;;;0.90;0.90;;;;;;;2.86;82.53;99779.81;5041711;28;20198;-57
2023/03/14 05:46:00;;;;;;;0.70;0.70;;;;;;;3.08;81.67;99781.63;5042911;28;20280;-57
2023/03/14 05:48:27;;;;;;;0.80;0.80;;;;;;;3.22;81.23;99788.47;5037750;28;20267;-57
2023/03/14 05:50:56;;;;;;;1.03;1.03;;;;;;;3.37;81.06;99791.06;5031715;28;20221;-70
2023/03/14 05:53:23;;;;;;;0.80;0.80;;;;;;;3.53;80.93;99793.69;5029871;28;20604;-70
2023/03/14 05:55:53;;;;;;;0.60;0.60;;;;;;;3.54;80.04;99792.84;5032390;28;20197;-70
2023/03/14 05:58:20;;;;;;;0.70;0.70;;;;;;;3.60;80.20;99792.88;5030901;28;20198;-71
2023/03/14 06:00:47;;;;;;;1.10;1.10;;;;;;;3.82;79.81;99783.66;5030964;28;20651;-70
2023/03/14 06:03:14;;;;;;;0.80;0.80;;;;;;;4.10;79.22;99794.72;5028858;28;20209;-70
2023/03/14 06:05:40;;;;;;;0.60;0.60;;;;;;;4.28;78.22;99788.81;5028481;28;20206;-70
2023/03/14 06:08:07;;;;;;;0.70;0.70;;;;;;;4.47;77.52;99785.44;5029336;28;20197;-70
2023/03/14 06:10:35;;;;;;;0.70;0.70;;;;;;;4.62;76.99;99785.47;5030198;28;20717;-71
2023/03/14 06:13:04;;;;;;;0.73;0.73;;;;;;;4.75;75.58;99788.00;5029935;28;20205;-70
2023/03/14 06:15:32;;;;;;;0.70;0.70;;;;;;;4.86;74.20;99784.59;5028484;28;20198;-71
2023/03/14 06:17:59;;;;;;;1.10;1.10;;;;;;;4.76;74.00;99778.69;5035793;28;20255;-73
2023/03/14 06:20:26;;;;;;;0.70;0.70;;;;;;;4.87;73.33;99779.53;5029623;28;20670;-73
2023/03/14 06:22:53;;;;;;;0.90;0.90;;;;;;;4.90;72.91;99776.97;5033445;28;20197;-71
2023/03/14 06:25:20;;;;;;;0.60;0.60;;;;;;;5.01;72.53;99775.25;5029603;28;20204;-70
2023/03/14 06:27:47;;;;;;;0.60;0.60;;;;;;;5.13;72.33;99772.72;5031625;28;20589;-70
2023/03/14 06:30:15;;;;;;;0.70;0.70;;;;;;;5.22;71.06;99775.22;5030844;28;20228;-70
2023/03/14 06:32:42;;;;;;;0.73;0.73;;;;;;;5.33;70.47;99770.13;5032734;28;20575;-71
2023/03/14 06:35:09;;;;;;;0.80;0.80;;;;;;;5.35;69.84;99767.56;5033299;28;20212;-71
2023/03/14 06:37:36;;;;;;;0.70;0.70;;;;;;;5.36;69.85;99766.72;5035562;28;20201;-71
2023/03/14 06:40:05;;;;;;;0.80;0.80;;;;;;;5.23;70.18;99766.72;5034593;28;20606;-70
2023/03/14 06:42:31;;;;;;;0.60;0.60;;;;;;;5.29;70.21;99781.97;5028994;28;20201;-70
2023/03/14 06:44:58;;;;;;;0.63;0.63;;;;;;;5.53;70.19;99775.09;5024947;28;20260;-70
2023/03/14 06:47:26;;;;;;;0.80;0.80;;;;;;;5.73;69.25;99773.31;5020875;28;20213;-70
2023/03/14 06:49:53;;;;;;;0.70;0.70;;;;;;;5.98;69.40;99781.72;5022281;28;20246;-70
2023/03/14 06:52:20;;;;;;;0.67;0.67;;;;;;;6.16;68.36;99773.97;5024317;28;20229;-70
2023/03/14 06:54:46;;;;;;;0.67;0.67;;;;;;;6.20;68.75;99766.28;5026037;28;20247;-70
2023/03/14 06:57:13;;;;;;;0.90;0.90;;;;;;;6.15;68.28;99759.53;5030210;28;20201;-70
2023/03/14 06:59:40;;;;;;;0.60;0.60;;;;;;;5.99;68.84;99774.06;5027951;28;20197;-70
2023/03/14 07:02:11;;;;;;;0.90;0.90;;;;;;;6.08;68.51;99761.28;5030307;28;20252;-70
2023/03/14 07:04:39;;;;;;;0.67;0.67;;;;;;;6.09;69.02;99762.97;5030572;28;20205;-70
2023/03/14 07:07:06;;;;;;;0.73;0.73;;;;;;;5.89;70.72;99754.63;5030325;28;20198;-71
2023/03/14 07:09:33;;;;;;;0.77;0.77;;;;;;;6.13;70.15;99757.03;5026101;28;20209;-71
2023/03/14 07:12:00;;;;;;;0.57;0.57;;;;;;;6.40;68.95;99752.59;5027584;28;20237;-71
2023/03/14 07:14:27;;;;;;;0.73;0.73;;;;;;;6.48;69.33;99751.66;5030306;28;20198;-70
2023/03/14 07:16:54;;;;;;;1.10;1.10;;;;;;;6.60;69.39;99730.31;5035054;28;20251;-70
2023/03/14 07:19:21;;;;;;;0.70;0.70;;;;;;;6.76;68.15;99735.28;5034296;28;20197;-70
2023/03/14 07:21:49;;;;;;;0.50;0.50;;;;;;;6.95;67.63;99723.19;5032769;28;20198;-73
2023/03/14 07:24:15;;;;;;;0.60;0.60;;;;;;;7.16;66.04;99728.06;5033275;28;20209;-73
2023/03/14 07:26:42;;;;;;;2.10;2.00;;;;;;;7.33;65.25;99736.34;5036407;28;20193;-71
2023/03/14 07:29:09;;;;;;;0.50;0.50;;;;;;;7.39;64.65;99735.47;5033660;28;20648;-70
2023/03/14 07:31:36;;;;;;;1.13;1.13;;;;;;;7.52;64.40;99718.28;5033865;28;20648;-70
2023/03/14 07:34:03;;;;;;;0.60;0.60;;;;;;;7.83;63.45;99725.50;5033516;28;20198;-69
2023/03/14 07:36:29;;;;;;;0.60;0.60;;;;;;;8.03;61.38;99730.34;5030246;28;20669;-72
2023/03/14 07:38:57;;;;;;;0.60;0.60;;;;;;;8.21;59.26;99724.09;5035411;28;20262;-71
2023/03/14 07:41:24;;;;;;;0.60;0.60;;;;;;;8.40;59.19;99728.91;5028949;28;20731;-71
2023/03/14 07:43:51;;;;;;;0.50;0.50;;;;;;;8.40;58.10;99697.44;5038125;28;20208;-72
2023/03/14 07:46:18;;;;;;;0.70;0.70;;;;;;;8.74;56.62;99724.09;5034507;28;20220;-72
2023/03/14 07:48:45;;;;;;;0.80;0.80;;;;;;;8.77;56.50;99716.38;5032692;28;20202;-72
2023/03/14 07:51:12;;;;;;;0.70;0.70;;;;;;;8.98;57.47;99724.53;5032025;28;20224;-72
2023/03/14 07:53:39;;;;;;;0.60;0.60;;;;;;;9.27;56.66;99715.41;5031861;28;20205;-71
2023/03/14 07:56:08;;;;;;;0.60;0.60;;;;;;;9.20;57.04;99713.88;5028882;28;20214;-71
2023/03/14 07:58:34;;;;;;;0.70;0.70;;;;;;;9.25;55.72;99714.59;5031210;28;20662;-72
2023/03/14 08:01:01;;;;;;;0.57;0.57;;;;;;;9.33;56.38;99717.88;5027903;28;20193;-69
2023/03/14 08:03:28;;;;;;;0.53;0.53;;;;;;;9.61;55.83;99701.94;5029062;28;20236;-70
2023/03/14 08:05:55;;;;;;;0.50;0.50;;;;;;;9.89;54.49;99708.13;5033359;28;20328;-69
2023/03/14 08:08:21;;;;;;;0.60;0.60;;;;;;;9.87;55.18;99705.59;5034866;28;20204;-69
2023/03/14 08:10:48;;;;;;;0.50;0.50;;;;;;;9.96;55.63;99704.53;5044223;28;20217;-68
2023/03/14 08:13:16;;;;;;;0.40;0.40;;;;;;;10.05;53.47;99709.44;5033689;28;20201;-70
2023/03/14 08:15:43;;;;;;;1.80;1.70;;;;;;;10.03;52.77;99708.66;5028589;28;20206;-71
2023/03/14 08:18:10;;;;;;;0.50;0.50;;;;;;;10.16;52.08;99697.28;5030127;28;20210;-70
2023/03/14 08:20:37;;;;;;;0.70;0.70;;;;;;;10.19;51.23;99704.03;5029695;28;20197;-71
2023/03/14 08:23:04;;;;;;;0.50;0.50;;;;;;;10.05;52.35;99704.34;5029963;28;20202;-69
2023/03/14 08:25:31;;;;;;;0.50;0.50;;;;;;;10.21;51.79;99695.44;5027796;28;20197;-71
2023/03/14 08:27:58;;;;;;;0.40;0.40;;;;;;;10.36;49.97;99692.53;5031692;28;20198;-71
2023/03/14 08:30:26;;;;;;;0.60;0.60;;;;;;;10.61;50.01;99689.34;5026140;28;20295;-71
2023/03/14 08:32:53;;;;;;;0.60;0.60;;;;;;;10.83;50.07;99685.31;5028571;28;20671;-72
2023/03/14 08:35:20;;;;;;;0.60;0.60;;;;;;;11.02;49.46;99686.50;5032207;28;20196;-70
2023/03/14 08:37:47;;;;;;;0.50;0.50;;;;;;;11.16;49.91;99681.84;5034237;28;20201;-67
2023/03/14 08:40:16;;;;;;;0.50;0.50;;;;;;;11.31;49.77;99688.28;5033970;28;20225;-61
2023/03/14 08:42:43;;;;;;;0.50;0.50;;;;;;;11.56;45.45;99679.84;5026929;28;20221;-61
2023/03/14 08:45:13;;;;;;;0.53;0.53;;;;;;;11.27;45.05;99677.28;5027513;28;20194;-61
2023/03/14 08:47:41;;;;;;;0.60;0.60;;;;;;;11.19;47.04;99666.38;5028906;28;20657;-64
2023/03/14 08:50:11;;;;;;;0.40;0.40;;;;;;;11.33;46.77;99664.25;5029707;28;20201;-64
2023/03/14 08:52:40;;;;;;;0.60;0.60;;;;;;;11.10;45.68;99643.53;5031217;28;20236;-63
2023/03/14 08:55:07;;;;;;;0.57;0.57;;;;;;;10.95;46.27;99661.94;5031623;28;20200;-63
2023/03/14 08:57:34;;;;;;;0.70;0.70;;;;;;;11.14;46.48;99657.97;5032371;28;21855;-61
2023/03/14 09:00:01;;;;;;;2.30;1.00;;;;;;;11.23;46.19;99639.75;5034218;28;20201;-61
2023/03/14 09:02:31;;;;;;;0.47;0.47;;;;;;;11.53;45.82;99632.88;5033173;28;20193;-62
2023/03/14 09:05:00;;;;;;;0.40;0.40;;;;;;;11.61;44.67;99630.88;5033048;28;20208;-60
2023/03/14 09:07:27;;;;;;;0.40;0.40;;;;;;;11.67;43.52;99632.41;5031643;28;20198;-62
2023/03/14 09:09:53;;;;;;;0.50;0.50;;;;;;;11.72;45.54;99623.75;5032941;28;20198;-62
2023/03/14 09:12:20;;;;;;;0.77;0.77;;;;;;;11.90;44.43;99612.03;5038451;28;20262;-63
2023/03/14 09:14:50;;;;;;;0.60;0.60;;;;;;;11.91;43.75;99616.28;5032061;28;20217;-61
2023/03/14 09:17:17;;;;;;;0.50;0.50;;;;;;;12.20;43.15;99612.75;5029535;28;20680;-63
2023/03/14 09:19:43;;;;;;;0.57;0.57;;;;;;;12.39;42.92;99599.25;5031546;28;20206;-63
2023/03/14 09:22:11;;;;;;;0.40;0.40;;;;;;;12.56;43.12;99606.38;5032193;28;20255;-62
2023/03/14 09:24:38;;;;;;;0.50;0.50;;;;;;;12.44;43.04;99596.53;5032351;28;20205;-61
2023/03/14 09:27:05;;;;;;;0.40;0.40;;;;;;;12.27;42.67;99584.25;5034772;28;20202;-62
2023/03/14 09:29:35;;;;;;;0.93;0.93;;;;;;;12.50;43.48;99584.25;5030021;28;20263;-62
2023/03/14 09:32:03;;;;;;;0.40;0.40;;;;;;;12.39;42.55;99586.38;5036119;28;20252;-61
2023/03/14 09:34:29;;;;;;;0.50;0.50;;;;;;;12.20;42.15;99584.50;5030631;28;20206;-60
2023/03/14 09:36:56;;;;;;;0.50;0.50;;;;;;;12.06;44.32;99582.38;5029586;28;20193;-61
2023/03/14 09:39:25;;;;;;;0.60;0.60;;;;;;;12.30;45.05;99566.16;5032718;28;20709;-62
2023/03/14 09:41:54;;;;;;;0.70;0.70;;;;;;;12.47;44.12;99558.66;5031863;28;20255;-62
2023/03/14 09:44:25;;;;;;;0.50;0.50;;;;;;;12.81;43.63;99562.59;5031173;28;20269;-62
2023/03/14 09:46:53;;;;;;;0.50;0.50;;;;;;;13.14;45.32;99561.38;5029860;28;20198;-63
2023/03/14 09:49:24;;;;;;;0.70;0.70;;;;;;;13.27;43.78;99560.03;5029137;28;20647;-63
2023/03/14 09:51:55;;;;;;;0.40;0.40;;;;;;;13.48;43.36;99561.75;5031547;28;20685;-63
2023/03/14 09:54:39;;;;;;;0.33;0.33;;;;;;;13.26;41.57;99560.06;5030897;28;20208;-62
2023/03/14 09:57:12;;;;;;;0.43;0.43;;;;;;;13.29;41.87;99555.66;5029401;28;20202;-62
2023/03/14 09:59:40;;;;;;;0.40;0.40;;;;;;;13.25;42.56;99554.06;5030980;28;20272;-63
2023/03/14 10:02:17;;;;;;;0.70;0.70;;;;;;;13.24;42.54;99546.44;5031105;28;20194;-62
2023/03/14 10:04:46;;;;;;;0.40;0.40;;;;;;;13.29;42.77;99544.50;5030441;28;20209;-62
2023/03/14 10:07:16;;;;;;;0.40;0.40;;;;;;;12.94;41.48;99538.09;5030435;28;20245;-62
2023/03/14 10:09:48;;;;;;;0.50;0.50;;;;;;;12.98;41.88;99525.06;5022900;28;20284;-62
2023/03/14 10:12:15;;;;;;;0.40;0.40;;;;;;;13.04;43.03;99518.84;5027292;28;20223;-62
2023/03/14 10:14:48;;;;;;;0.40;0.40;;;;;;;13.02;41.99;99520.66;5030516;28;20205;-62
2023/03/14 10:17:16;;;;;;;0.40;0.40;;;;;;;12.79;42.64;99513.81;5027711;28;20204;-62
2023/03/14 10:19:53;;;;;;;0.43;0.43;;;;;;;12.96;42.42;99500.28;5019501;28;20194;-63
2023/03/14 10:22:21;;;;;;;0.57;0.57;;;;;;;13.04;41.84;99477.66;5026009;28;20228;-63
2023/03/14 10:24:53;;;;;;;0.50;0.50;;;;;;;13.20;42.79;99494.22;5031406;28;20202;-63
2023/03/14 10:27:22;;;;;;;0.40;0.40;;;;;;;13.39;44.32;99490.03;5029537;28;20197;-63
2023/03/14 10:29:55;;;;;;;0.60;0.60;;;;;;;13.62;41.99;99492.50;5029122;28;20586;-63
2023/03/14 10:32:28;;;;;;;0.40;0.40;;;;;;;13.77;41.05;99485.03;5023388;28;20292;-67
2023/03/14 10:35:08;;;;;;;0.50;0.50;;;;;;;13.81;40.63;99486.56;5020457;28;20260;-63
2023/03/14 10:37:35;;;;;;;0.60;0.60;;;;;;;13.57;40.26;99478.97;5018996;28;20714;-63
2023/03/14 10:40:07;;;;;;;0.50;0.50;;;;;;;13.48;41.35;99469.03;5018090;28;20206;-63
2023/03/14 10:42:35;;;;;;;0.50;0.50;;;;;;;13.58;41.20;99454.88;5018510;28;20202;-63
2023/03/14 10:45:05;;;;;;;0.60;0.60;;;;;;;13.82;40.42;99453.03;5026336;28;20206;-63
2023/03/14 10:47:33;;;;;;;0.50;0.50;;;;;;;13.72;41.02;99445.75;5025004;28;20701;-64
2023/03/14 10:50:24;;;;;;;0.50;0.50;;;;;;;13.67;40.81;99433.03;5016920;28;20689;-63
2023/03/14 10:52:53;;;;;;;0.50;0.50;;;;;;;13.58;40.80;99439.44;5014716;28;20309;-63
2023/03/14 10:55:21;;;;;;;0.60;0.60;;;;;;;13.65;41.38;99427.97;5013569;28;20264;-64
2023/03/14 10:57:47;;;;;;;0.50;0.50;;;;;;;13.83;40.08;99428.09;5018197;28;20216;-63
2023/03/14 11:00:18;;;;;;;0.50;0.50;;;;;;;13.86;40.90;99412.50;5013678;28;20198;-64
2023/03/14 11:03:03;;;;;;;0.60;0.60;;;;;;;13.83;39.75;99412.66;5012849;28;20206;-63
2023/03/14 11:05:35;;;;;;;0.40;0.40;;;;;;;13.97;39.90;99399.97;5017731;28;20214;-63
2023/03/14 11:08:08;;;;;;;0.50;0.50;;;;;;;14.14;39.21;99388.03;5017349;28;20214;-62
2023/03/14 11:10:40;;;;;;;0.50;0.50;;;;;;;14.03;39.32;99384.25;5026730;28;20440;-59
2023/03/14 11:13:16;;;;;;;0.50;0.50;;;;;;;14.03;40.78;99379.09;5025336;28;20604;-60
2023/03/14 11:15:51;;;;;;;0.43;0.43;;;;;;;13.79;40.16;99354.41;5020027;28;20983;-60
2023/03/14 11:18:44;;;;;;;0.50;0.50;;;;;;;13.93;39.22;99362.34;5018910;28;20680;-60
2023/03/14 11:21:14;;;;;;;0.50;0.50;;;;;;;14.13;40.53;99342.53;5026809;28;20204;-59
2023/03/14 11:23:51;;;;;;;0.50;0.50;;;;;;;13.99;39.56;99338.91;5016906;28;20216;-59
2023/03/14 11:26:29;;;;;;;0.50;0.50;;;;;;;13.70;38.12;99329.06;5029298;28;20272;-59
2023/03/14 11:28:59;;;;;;;0.50;0.50;;;;;;;13.73;38.83;99331.50;5029326;28;20218;-59
2023/03/14 11:31:29;;;;;;;0.60;0.60;;;;;;;13.63;39.80;99305.31;5030664;28;20225;-59
2023/03/14 11:34:01;;;;;;;0.87;0.80;;;;;;;13.73;40.32;99308.31;5030452;28;20216;-60
2023/03/14 11:36:32;;;;;;;0.50;0.50;;;;;;;13.92;41.15;99304.00;5025795;28;20678;-59
2023/03/14 11:39:00;;;;;;;0.70;0.70;;;;;;;13.93;40.23;99295.34;5028227;28;20621;-59
2023/03/14 11:41:33;;;;;;;0.43;0.43;;;;;;;13.91;39.75;99290.28;5025055;28;20205;-59
2023/03/14 11:44:03;;;;;;;0.40;0.40;;;;;;;14.00;40.76;99287.28;5028486;28;20202;-59